sensor_id;sensor_type;location;lat;lon;timestamp;temperature;humidity
15426;DHT22;7812;50.072;7.036;2022-12-15T00:01:32;-3.20;99.90
15426;DHT22;7812;50.072;7.036;2022-12-15T00:04:16;-3.10;99.90
15426;DHT22;7812;50.072;7.036;2022-12-15T00:07:01;-3.30;99.90
15426;DHT22;7812;50.072;7.036;2022-12-15T00:09:45;-3.40;99.90
15426;DHT22;7812;50.072;7.036;2022-12-15T00:12:29;-3.50;99.90
15426;DHT22;7812;50.072;7.036;2022-12-15T00:15:13;-3.60;99.90
15426;DHT22;7812;50.072;7.036;2022-12-15T00:18:03;-3.60;99.90
15426;DHT22;7812;50.072;7.036;2022-12-15T00:20:48;-3.70;99.90
15426;DHT22;7812;50.072;7.036;2022-12-15T00:23:32;-3.70;99.90
15426;DHT22;7812;50.072;7.036;2022-12-15T00:26:16;-3.60;99.90
15426;DHT22;7812;50.072;7.036;2022-12-15T00:29:01;-3.60;99.90
15426;DHT22;7812;50.072;7.036;2022-12-15T00:31:45;-3.60;99.90
15426;DHT22;7812;50.072;7.036;2022-12-15T00:34:29;-3.60;99.90
15426;DHT22;7812;50.072;7.036;2022-12-15T00:37:13;-3.40;99.90
15426;DHT22;7812;50.072;7.036;2022-12-15T00:39:57;-3.60;99.90
15426;DHT22;7812;50.072;7.036;2022-12-15T00:42:28;-3.50;99.90
15426;DHT22;7812;50.072;7.036;2022-12-15T00:44:57;-3.60;99.90
15426;DHT22;7812;50.072;7.036;2022-12-15T00:47:23;-3.60;99.90
15426;DHT22;7812;50.072;7.036;2022-12-15T00:49:49;-3.60;99.90
15426;DHT22;7812;50.072;7.036;2022-12-15T00:52:34;-3.70;99.90
15426;DHT22;7812;50.072;7.036;2022-12-15T00:55:18;-3.60;99.90
15426;DHT22;7812;50.072;7.036;2022-12-15T00:58:02;-3.80;99.90
15426;DHT22;7812;50.072;7.036;2022-12-15T01:00:47;-3.70;99.90
15426;DHT22;7812;50.072;7.036;2022-12-15T01:03:34;-3.50;99.90
15426;DHT22;7812;50.072;7.036;2022-12-15T01:06:19;-3.30;99.90
15426;DHT22;7812;50.072;7.036;2022-12-15T01:09:05;-3.40;99.90
15426;DHT22;7812;50.072;7.036;2022-12-15T01:11:50;-3.60;99.90
15426;DHT22;7812;50.072;7.036;2022-12-15T01:14:35;-3.80;99.90
15426;DHT22;7812;50.072;7.036;2022-12-15T01:17:19;-3.90;99.90
15426;DHT22;7812;50.072;7.036;2022-12-15T01:20:05;-4.00;99.90
15426;DHT22;7812;50.072;7.036;2022-12-15T01:22:51;-4.10;99.90
15426;DHT22;7812;50.072;7.036;2022-12-15T01:25:19;-4.00;99.90
15426;DHT22;7812;50.072;7.036;2022-12-15T01:27:47;-4.00;99.90
15426;DHT22;7812;50.072;7.036;2022-12-15T01:30:17;-3.90;99.90
15426;DHT22;7812;50.072;7.036;2022-12-15T01:32:43;-3.90;99.90
15426;DHT22;7812;50.072;7.036;2022-12-15T01:35:09;-3.90;99.90
15426;DHT22;7812;50.072;7.036;2022-12-15T01:37:35;-3.80;99.90
15426;DHT22;7812;50.072;7.036;2022-12-15T01:40:03;-3.80;99.90
15426;DHT22;7812;50.072;7.036;2022-12-15T01:42:48;-3.80;99.90
15426;DHT22;7812;50.072;7.036;2022-12-15T01:48:12;-4.00;99.90
15426;DHT22;7812;50.072;7.036;2022-12-15T01:50:42;-4.20;99.90
15426;DHT22;7812;50.072;7.036;2022-12-15T01:53:10;-4.20;99.90
15426;DHT22;7812;50.072;7.036;2022-12-15T01:55:37;-4.30;99.90
15426;DHT22;7812;50.072;7.036;2022-12-15T01:58:07;-4.40;99.90
15426;DHT22;7812;50.072;7.036;2022-12-15T02:00:34;-4.40;99.90
15426;DHT22;7812;50.072;7.036;2022-12-15T02:03:01;-4.40;99.90
15426;DHT22;7812;50.072;7.036;2022-12-15T02:05:29;-4.50;99.90
15426;DHT22;7812;50.072;7.036;2022-12-15T02:07:57;-4.40;99.90
15426;DHT22;7812;50.072;7.036;2022-12-15T02:10:26;-4.40;99.90
15426;DHT22;7812;50.072;7.036;2022-12-15T02:13:18;-4.40;99.90
15426;DHT22;7812;50.072;7.036;2022-12-15T02:15:51;-4.40;99.90
15426;DHT22;7812;50.072;7.036;2022-12-15T02:21:40;-4.50;99.90
15426;DHT22;7812;50.072;7.036;2022-12-15T02:30:03;-4.80;99.90
15426;DHT22;7812;50.072;7.036;2022-12-15T02:32:42;-4.80;99.90
15426;DHT22;7812;50.072;7.036;2022-12-15T02:35:23;-5.00;99.90
15426;DHT22;7812;50.072;7.036;2022-12-15T02:37:50;-5.00;99.90
15426;DHT22;7812;50.072;7.036;2022-12-15T02:40:16;-5.00;99.90
15426;DHT22;7812;50.072;7.036;2022-12-15T02:42:44;-4.90;99.90
15426;DHT22;7812;50.072;7.036;2022-12-15T02:45:14;-4.90;99.90
15426;DHT22;7812;50.072;7.036;2022-12-15T02:48:15;-4.80;99.90
15426;DHT22;7812;50.072;7.036;2022-12-15T02:56:43;-5.00;99.90
15426;DHT22;7812;50.072;7.036;2022-12-15T02:59:15;-5.10;99.90
15426;DHT22;7812;50.072;7.036;2022-12-15T03:01:50;-5.10;99.90
15426;DHT22;7812;50.072;7.036;2022-12-15T03:04:17;-5.00;99.90
15426;DHT22;7812;50.072;7.036;2022-12-15T03:06:43;-5.00;99.90
15426;DHT22;7812;50.072;7.036;2022-12-15T03:09:09;-5.00;99.90
15426;DHT22;7812;50.072;7.036;2022-12-15T03:11:36;-5.20;99.90
15426;DHT22;7812;50.072;7.036;2022-12-15T03:14:01;-5.20;99.90
15426;DHT22;7812;50.072;7.036;2022-12-15T03:16:27;-5.20;99.90
15426;DHT22;7812;50.072;7.036;2022-12-15T03:18:53;-5.20;99.90
15426;DHT22;7812;50.072;7.036;2022-12-15T03:21:18;-5.20;99.90
15426;DHT22;7812;50.072;7.036;2022-12-15T03:23:45;-5.20;99.90
15426;DHT22;7812;50.072;7.036;2022-12-15T03:26:11;-5.30;99.90
15426;DHT22;7812;50.072;7.036;2022-12-15T03:28:38;-5.50;99.90
15426;DHT22;7812;50.072;7.036;2022-12-15T03:31:04;-5.60;99.90
15426;DHT22;7812;50.072;7.036;2022-12-15T03:33:31;-5.60;99.90
15426;DHT22;7812;50.072;7.036;2022-12-15T03:35:57;-5.60;99.90
15426;DHT22;7812;50.072;7.036;2022-12-15T03:38:24;-5.60;99.90
15426;DHT22;7812;50.072;7.036;2022-12-15T03:40:50;-5.60;99.90
15426;DHT22;7812;50.072;7.036;2022-12-15T03:43:15;-5.60;99.90
15426;DHT22;7812;50.072;7.036;2022-12-15T03:45:41;-5.50;99.90
15426;DHT22;7812;50.072;7.036;2022-12-15T03:48:08;-5.50;99.90
15426;DHT22;7812;50.072;7.036;2022-12-15T03:50:34;-5.60;99.90
15426;DHT22;7812;50.072;7.036;2022-12-15T03:53:02;-5.60;99.90
15426;DHT22;7812;50.072;7.036;2022-12-15T03:55:28;-5.60;99.90
15426;DHT22;7812;50.072;7.036;2022-12-15T03:57:54;-5.70;99.90
15426;DHT22;7812;50.072;7.036;2022-12-15T04:00:22;-5.80;99.90
15426;DHT22;7812;50.072;7.036;2022-12-15T04:02:49;-5.90;99.90
15426;DHT22;7812;50.072;7.036;2022-12-15T04:05:30;-5.90;99.90
15426;DHT22;7812;50.072;7.036;2022-12-15T04:07:57;-5.90;99.90
15426;DHT22;7812;50.072;7.036;2022-12-15T04:10:25;-5.80;99.90
15426;DHT22;7812;50.072;7.036;2022-12-15T04:12:58;-5.80;99.90
15426;DHT22;7812;50.072;7.036;2022-12-15T04:15:25;-5.70;99.90
15426;DHT22;7812;50.072;7.036;2022-12-15T04:17:51;-5.80;99.90
15426;DHT22;7812;50.072;7.036;2022-12-15T04:20:17;-6.00;99.90
15426;DHT22;7812;50.072;7.036;2022-12-15T04:22:44;-5.90;99.90
15426;DHT22;7812;50.072;7.036;2022-12-15T04:25:13;-5.90;99.90
15426;DHT22;7812;50.072;7.036;2022-12-15T04:27:58;-5.90;99.90
15426;DHT22;7812;50.072;7.036;2022-12-15T04:33:35;-6.00;99.90
15426;DHT22;7812;50.072;7.036;2022-12-15T04:36:21;-6.00;99.90
15426;DHT22;7812;50.072;7.036;2022-12-15T04:39:05;-5.90;99.90
15426;DHT22;7812;50.072;7.036;2022-12-15T04:41:51;-6.00;99.90
15426;DHT22;7812;50.072;7.036;2022-12-15T04:44:37;-6.00;99.90
15426;DHT22;7812;50.072;7.036;2022-12-15T04:47:21;-6.10;99.90
15426;DHT22;7812;50.072;7.036;2022-12-15T04:50:06;-6.20;99.90
15426;DHT22;7812;50.072;7.036;2022-12-15T04:52:51;-6.20;99.90
15426;DHT22;7812;50.072;7.036;2022-12-15T04:55:35;-6.20;99.90
15426;DHT22;7812;50.072;7.036;2022-12-15T04:58:20;-6.20;99.90
15426;DHT22;7812;50.072;7.036;2022-12-15T05:01:05;-6.20;99.90
15426;DHT22;7812;50.072;7.036;2022-12-15T05:03:49;-6.10;99.90
15426;DHT22;7812;50.072;7.036;2022-12-15T05:06:33;-6.20;99.90
15426;DHT22;7812;50.072;7.036;2022-12-15T05:09:17;-6.20;99.90
15426;DHT22;7812;50.072;7.036;2022-12-15T05:12:02;-6.30;99.90
15426;DHT22;7812;50.072;7.036;2022-12-15T05:14:46;-6.40;99.90
15426;DHT22;7812;50.072;7.036;2022-12-15T05:17:31;-6.50;99.90
15426;DHT22;7812;50.072;7.036;2022-12-15T05:20:15;-6.60;99.90
15426;DHT22;7812;50.072;7.036;2022-12-15T05:23:00;-6.70;99.90
15426;DHT22;7812;50.072;7.036;2022-12-15T05:25:44;-6.80;99.90
15426;DHT22;7812;50.072;7.036;2022-12-15T05:28:28;-6.80;99.90
15426;DHT22;7812;50.072;7.036;2022-12-15T05:31:13;-6.90;99.90
15426;DHT22;7812;50.072;7.036;2022-12-15T05:33:57;-6.80;99.90
15426;DHT22;7812;50.072;7.036;2022-12-15T05:36:23;-6.80;99.90
15426;DHT22;7812;50.072;7.036;2022-12-15T05:38:50;-6.80;99.90
15426;DHT22;7812;50.072;7.036;2022-12-15T05:41:17;-6.70;99.90
15426;DHT22;7812;50.072;7.036;2022-12-15T05:43:43;-6.60;99.90
15426;DHT22;7812;50.072;7.036;2022-12-15T05:46:09;-6.50;99.90
15426;DHT22;7812;50.072;7.036;2022-12-15T05:48:35;-6.60;99.90
15426;DHT22;7812;50.072;7.036;2022-12-15T05:51:09;-6.70;99.90
15426;DHT22;7812;50.072;7.036;2022-12-15T05:53:36;-6.60;99.90
15426;DHT22;7812;50.072;7.036;2022-12-15T05:56:07;-6.60;99.90
15426;DHT22;7812;50.072;7.036;2022-12-15T05:58:33;-6.60;99.90
15426;DHT22;7812;50.072;7.036;2022-12-15T06:01:15;-6.50;99.90
15426;DHT22;7812;50.072;7.036;2022-12-15T06:03:42;-6.60;99.90
15426;DHT22;7812;50.072;7.036;2022-12-15T06:06:09;-6.70;99.90
15426;DHT22;7812;50.072;7.036;2022-12-15T06:08:37;-6.70;99.90
15426;DHT22;7812;50.072;7.036;2022-12-15T06:11:04;-6.90;99.90
15426;DHT22;7812;50.072;7.036;2022-12-15T06:13:30;-6.70;99.90
15426;DHT22;7812;50.072;7.036;2022-12-15T06:16:05;-6.50;99.90
15426;DHT22;7812;50.072;7.036;2022-12-15T06:18:34;-6.50;99.90
15426;DHT22;7812;50.072;7.036;2022-12-15T06:21:09;-6.50;99.90
15426;DHT22;7812;50.072;7.036;2022-12-15T06:23:37;-6.50;99.90
15426;DHT22;7812;50.072;7.036;2022-12-15T06:26:17;-6.60;99.90
15426;DHT22;7812;50.072;7.036;2022-12-15T06:28:43;-6.50;99.90
15426;DHT22;7812;50.072;7.036;2022-12-15T06:31:10;-6.50;99.90
15426;DHT22;7812;50.072;7.036;2022-12-15T06:33:37;-6.40;99.90
15426;DHT22;7812;50.072;7.036;2022-12-15T06:36:07;-6.40;99.90
15426;DHT22;7812;50.072;7.036;2022-12-15T06:38:34;-6.30;99.90
15426;DHT22;7812;50.072;7.036;2022-12-15T06:41:01;-6.30;99.90
15426;DHT22;7812;50.072;7.036;2022-12-15T06:43:28;-6.30;99.90
15426;DHT22;7812;50.072;7.036;2022-12-15T06:45:54;-6.40;99.90
15426;DHT22;7812;50.072;7.036;2022-12-15T06:48:21;-6.40;99.90
15426;DHT22;7812;50.072;7.036;2022-12-15T06:50:47;-6.40;99.90
15426;DHT22;7812;50.072;7.036;2022-12-15T06:53:15;-6.10;99.90
15426;DHT22;7812;50.072;7.036;2022-12-15T06:55:44;-6.20;99.90
15426;DHT22;7812;50.072;7.036;2022-12-15T06:58:11;-6.00;99.90
15426;DHT22;7812;50.072;7.036;2022-12-15T07:00:38;-6.10;99.90
15426;DHT22;7812;50.072;7.036;2022-12-15T07:03:13;-6.20;99.90
15426;DHT22;7812;50.072;7.036;2022-12-15T07:05:41;-6.40;99.90
15426;DHT22;7812;50.072;7.036;2022-12-15T07:08:09;-6.30;99.90
15426;DHT22;7812;50.072;7.036;2022-12-15T07:10:37;-6.30;99.90
15426;DHT22;7812;50.072;7.036;2022-12-15T07:13:03;-6.00;99.90
15426;DHT22;7812;50.072;7.036;2022-12-15T07:15:29;-5.80;99.90
15426;DHT22;7812;50.072;7.036;2022-12-15T07:17:55;-5.70;99.90
15426;DHT22;7812;50.072;7.036;2022-12-15T07:20:22;-5.70;99.90
15426;DHT22;7812;50.072;7.036;2022-12-15T07:22:50;-5.80;99.90
15426;DHT22;7812;50.072;7.036;2022-12-15T07:25:18;-5.90;99.90
15426;DHT22;7812;50.072;7.036;2022-12-15T07:27:44;-5.90;99.90
15426;DHT22;7812;50.072;7.036;2022-12-15T07:30:12;-5.80;99.90
15426;DHT22;7812;50.072;7.036;2022-12-15T07:32:38;-5.90;99.90
15426;DHT22;7812;50.072;7.036;2022-12-15T07:35:04;-5.90;99.90
15426;DHT22;7812;50.072;7.036;2022-12-15T07:37:30;-5.80;99.90
15426;DHT22;7812;50.072;7.036;2022-12-15T07:39:56;-6.00;99.90
15426;DHT22;7812;50.072;7.036;2022-12-15T07:42:22;-5.80;99.90
15426;DHT22;7812;50.072;7.036;2022-12-15T07:44:48;-5.40;99.90
15426;DHT22;7812;50.072;7.036;2022-12-15T07:47:14;-5.30;99.90
15426;DHT22;7812;50.072;7.036;2022-12-15T07:49:41;-5.20;99.90
15426;DHT22;7812;50.072;7.036;2022-12-15T07:52:06;-5.00;99.90
15426;DHT22;7812;50.072;7.036;2022-12-15T07:54:33;-5.00;99.90
15426;DHT22;7812;50.072;7.036;2022-12-15T07:56:59;-5.00;99.90
15426;DHT22;7812;50.072;7.036;2022-12-15T07:59:25;-4.90;99.90
15426;DHT22;7812;50.072;7.036;2022-12-15T08:01:51;-4.80;99.90
15426;DHT22;7812;50.072;7.036;2022-12-15T08:04:17;-4.70;99.90
15426;DHT22;7812;50.072;7.036;2022-12-15T08:06:44;-4.70;99.90
15426;DHT22;7812;50.072;7.036;2022-12-15T08:09:10;-4.70;99.90
15426;DHT22;7812;50.072;7.036;2022-12-15T08:11:36;-4.50;99.90
15426;DHT22;7812;50.072;7.036;2022-12-15T08:14:03;-4.40;99.90
15426;DHT22;7812;50.072;7.036;2022-12-15T08:16:29;-4.30;99.90
15426;DHT22;7812;50.072;7.036;2022-12-15T08:18:55;-4.50;99.90
15426;DHT22;7812;50.072;7.036;2022-12-15T08:21:24;-4.60;99.90
15426;DHT22;7812;50.072;7.036;2022-12-15T08:23:49;-4.40;99.90
15426;DHT22;7812;50.072;7.036;2022-12-15T08:26:16;-4.40;99.90
15426;DHT22;7812;50.072;7.036;2022-12-15T08:28:43;-4.50;99.90
15426;DHT22;7812;50.072;7.036;2022-12-15T08:31:17;-4.70;99.90
15426;DHT22;7812;50.072;7.036;2022-12-15T08:33:43;-4.80;99.90
15426;DHT22;7812;50.072;7.036;2022-12-15T08:36:11;-4.60;99.90
15426;DHT22;7812;50.072;7.036;2022-12-15T08:38:39;-4.60;99.90
15426;DHT22;7812;50.072;7.036;2022-12-15T08:41:11;-4.30;99.90
15426;DHT22;7812;50.072;7.036;2022-12-15T08:43:37;-4.10;99.90
15426;DHT22;7812;50.072;7.036;2022-12-15T08:46:04;-4.20;99.90
15426;DHT22;7812;50.072;7.036;2022-12-15T08:48:30;-4.20;99.90
15426;DHT22;7812;50.072;7.036;2022-12-15T08:50:57;-5.00;99.90
15426;DHT22;7812;50.072;7.036;2022-12-15T08:53:23;-5.00;99.90
15426;DHT22;7812;50.072;7.036;2022-12-15T08:55:49;-4.60;99.90
15426;DHT22;7812;50.072;7.036;2022-12-15T08:58:14;-4.30;99.90
15426;DHT22;7812;50.072;7.036;2022-12-15T09:00:40;-4.10;99.90
15426;DHT22;7812;50.072;7.036;2022-12-15T09:03:06;-3.80;99.90
15426;DHT22;7812;50.072;7.036;2022-12-15T09:05:36;-3.70;99.90
15426;DHT22;7812;50.072;7.036;2022-12-15T09:08:01;-4.70;99.90
15426;DHT22;7812;50.072;7.036;2022-12-15T09:10:28;-5.00;99.90
15426;DHT22;7812;50.072;7.036;2022-12-15T09:12:54;-4.90;99.90
15426;DHT22;7812;50.072;7.036;2022-12-15T09:15:20;-4.60;99.90
15426;DHT22;7812;50.072;7.036;2022-12-15T09:17:47;-4.60;99.90
15426;DHT22;7812;50.072;7.036;2022-12-15T09:20:13;-4.70;99.90
15426;DHT22;7812;50.072;7.036;2022-12-15T09:22:40;-4.40;99.90
15426;DHT22;7812;50.072;7.036;2022-12-15T09:25:07;-4.80;99.90
15426;DHT22;7812;50.072;7.036;2022-12-15T09:27:33;-4.60;99.90
15426;DHT22;7812;50.072;7.036;2022-12-15T09:30:00;-4.70;99.90
15426;DHT22;7812;50.072;7.036;2022-12-15T09:32:27;-4.60;99.90
15426;DHT22;7812;50.072;7.036;2022-12-15T09:34:53;-4.50;99.90
15426;DHT22;7812;50.072;7.036;2022-12-15T09:37:19;-4.30;99.90
15426;DHT22;7812;50.072;7.036;2022-12-15T09:39:45;-4.10;99.90
15426;DHT22;7812;50.072;7.036;2022-12-15T09:42:29;-3.70;99.90
15426;DHT22;7812;50.072;7.036;2022-12-15T09:45:08;-3.80;99.90
15426;DHT22;7812;50.072;7.036;2022-12-15T09:47:55;-4.00;99.90
15426;DHT22;7812;50.072;7.036;2022-12-15T09:50:35;-4.10;99.90
15426;DHT22;7812;50.072;7.036;2022-12-15T09:53:10;-4.40;99.90
15426;DHT22;7812;50.072;7.036;2022-12-15T09:55:37;-4.40;99.90
15426;DHT22;7812;50.072;7.036;2022-12-15T10:01:04;-4.20;99.90
15426;DHT22;7812;50.072;7.036;2022-12-15T10:04:07;-4.40;99.90
15426;DHT22;7812;50.072;7.036;2022-12-15T10:06:50;-4.00;99.90
15426;DHT22;7812;50.072;7.036;2022-12-15T10:09:24;-3.70;99.90
15426;DHT22;7812;50.072;7.036;2022-12-15T10:12:27;-3.50;99.90
15426;DHT22;7812;50.072;7.036;2022-12-15T10:15:11;-3.40;99.90
15426;DHT22;7812;50.072;7.036;2022-12-15T10:17:57;-3.60;99.90
15426;DHT22;7812;50.072;7.036;2022-12-15T10:20:30;-3.90;99.90
15426;DHT22;7812;50.072;7.036;2022-12-15T10:23:07;-3.90;99.90
15426;DHT22;7812;50.072;7.036;2022-12-15T10:25:35;-3.90;99.90
15426;DHT22;7812;50.072;7.036;2022-12-15T10:30:33;-3.20;99.90
15426;DHT22;7812;50.072;7.036;2022-12-15T10:33:13;-2.90;99.90
15426;DHT22;7812;50.072;7.036;2022-12-15T10:35:41;-2.70;99.90
15426;DHT22;7812;50.072;7.036;2022-12-15T10:41:06;-2.60;99.90
15426;DHT22;7812;50.072;7.036;2022-12-15T10:43:41;-3.00;99.90
15426;DHT22;7812;50.072;7.036;2022-12-15T10:46:15;-3.30;99.90
15426;DHT22;7812;50.072;7.036;2022-12-15T10:48:50;-3.40;99.90
15426;DHT22;7812;50.072;7.036;2022-12-15T10:56:27;-3.30;99.90
15426;DHT22;7812;50.072;7.036;2022-12-15T10:58:55;-3.00;99.90
15426;DHT22;7812;50.072;7.036;2022-12-15T11:01:26;-2.90;99.90
15426;DHT22;7812;50.072;7.036;2022-12-15T11:03:52;-3.50;99.90
15426;DHT22;7812;50.072;7.036;2022-12-15T11:08:47;-3.30;99.90
15426;DHT22;7812;50.072;7.036;2022-12-15T11:11:32;-3.10;99.90
15426;DHT22;7812;50.072;7.036;2022-12-15T11:14:27;-2.80;99.90
15426;DHT22;7812;50.072;7.036;2022-12-15T11:16:56;-2.40;99.90
15426;DHT22;7812;50.072;7.036;2022-12-15T11:19:59;-2.20;99.90
15426;DHT22;7812;50.072;7.036;2022-12-15T11:25:02;-3.10;99.90
15426;DHT22;7812;50.072;7.036;2022-12-15T11:27:34;-3.60;99.90
15426;DHT22;7812;50.072;7.036;2022-12-15T11:30:20;-3.60;99.90
15426;DHT22;7812;50.072;7.036;2022-12-15T11:32:52;-3.10;99.90
15426;DHT22;7812;50.072;7.036;2022-12-15T11:35:32;-2.80;99.90
15426;DHT22;7812;50.072;7.036;2022-12-15T11:40:40;-3.10;99.90
15426;DHT22;7812;50.072;7.036;2022-12-15T11:49:21;-3.60;99.90
15426;DHT22;7812;50.072;7.036;2022-12-15T11:57:18;-3.00;99.90
15426;DHT22;7812;50.072;7.036;2022-12-15T12:07:58;-0.90;99.90
15426;DHT22;7812;50.072;7.036;2022-12-15T12:15:29;-0.80;99.90
15426;DHT22;7812;50.072;7.036;2022-12-15T12:18:19;-1.60;99.90
15426;DHT22;7812;50.072;7.036;2022-12-15T12:21:08;-2.20;99.90
15426;DHT22;7812;50.072;7.036;2022-12-15T12:23:48;-2.40;99.90
15426;DHT22;7812;50.072;7.036;2022-12-15T12:34:25;-1.80;99.90
15426;DHT22;7812;50.072;7.036;2022-12-15T12:36:54;-1.50;99.90
15426;DHT22;7812;50.072;7.036;2022-12-15T12:39:24;-2.00;99.90
15426;DHT22;7812;50.072;7.036;2022-12-15T12:42:38;-2.10;99.90
15426;DHT22;7812;50.072;7.036;2022-12-15T12:44:56;-2.30;99.90
15426;DHT22;7812;50.072;7.036;2022-12-15T12:47:27;-2.60;99.90
15426;DHT22;7812;50.072;7.036;2022-12-15T12:50:05;-2.30;99.90
15426;DHT22;7812;50.072;7.036;2022-12-15T12:52:33;-2.00;99.90
15426;DHT22;7812;50.072;7.036;2022-12-15T12:57:46;-2.20;99.90
15426;DHT22;7812;50.072;7.036;2022-12-15T13:05:33;-2.90;99.90
15426;DHT22;7812;50.072;7.036;2022-12-15T13:16:03;-2.30;99.90
15426;DHT22;7812;50.072;7.036;2022-12-15T13:18:56;-2.50;99.90
15426;DHT22;7812;50.072;7.036;2022-12-15T13:24:33;-3.30;99.90
15426;DHT22;7812;50.072;7.036;2022-12-15T13:29:41;-3.20;99.90
15426;DHT22;7812;50.072;7.036;2022-12-15T13:38:00;-3.50;99.90
15426;DHT22;7812;50.072;7.036;2022-12-15T13:45:52;-3.90;99.90
15426;DHT22;7812;50.072;7.036;2022-12-15T13:56:54;-3.60;99.90
15426;DHT22;7812;50.072;7.036;2022-12-15T13:59:30;-3.50;99.90
15426;DHT22;7812;50.072;7.036;2022-12-15T14:01:58;-3.20;99.90
15426;DHT22;7812;50.072;7.036;2022-12-15T14:04:25;-3.10;99.90
15426;DHT22;7812;50.072;7.036;2022-12-15T14:06:56;-3.00;99.90
15426;DHT22;7812;50.072;7.036;2022-12-15T14:09:37;-3.00;99.90
15426;DHT22;7812;50.072;7.036;2022-12-15T14:12:11;-3.40;99.90
15426;DHT22;7812;50.072;7.036;2022-12-15T14:14:44;-3.60;99.90
15426;DHT22;7812;50.072;7.036;2022-12-15T14:17:14;-3.70;99.90
15426;DHT22;7812;50.072;7.036;2022-12-15T14:19:43;-3.60;99.90
15426;DHT22;7812;50.072;7.036;2022-12-15T14:22:25;-3.70;99.90
15426;DHT22;7812;50.072;7.036;2022-12-15T14:25:11;-3.50;99.90
15426;DHT22;7812;50.072;7.036;2022-12-15T14:27:37;-3.60;99.90
15426;DHT22;7812;50.072;7.036;2022-12-15T14:32:41;-4.00;99.90
15426;DHT22;7812;50.072;7.036;2022-12-15T14:35:13;-4.20;99.90
15426;DHT22;7812;50.072;7.036;2022-12-15T14:37:42;-4.10;99.90
15426;DHT22;7812;50.072;7.036;2022-12-15T14:40:14;-3.90;99.90
15426;DHT22;7812;50.072;7.036;2022-12-15T14:42:41;-3.70;99.90
15426;DHT22;7812;50.072;7.036;2022-12-15T14:45:18;-3.90;99.90
15426;DHT22;7812;50.072;7.036;2022-12-15T14:47:54;-4.00;99.90
15426;DHT22;7812;50.072;7.036;2022-12-15T14:50:22;-4.10;99.90
15426;DHT22;7812;50.072;7.036;2022-12-15T14:53:05;-4.00;99.90
15426;DHT22;7812;50.072;7.036;2022-12-15T14:55:33;-4.00;99.90
15426;DHT22;7812;50.072;7.036;2022-12-15T14:58:00;-4.20;99.90
15426;DHT22;7812;50.072;7.036;2022-12-15T15:06:02;-4.40;99.90
15426;DHT22;7812;50.072;7.036;2022-12-15T15:08:35;-4.40;99.90
15426;DHT22;7812;50.072;7.036;2022-12-15T15:11:31;-4.20;99.90
15426;DHT22;7812;50.072;7.036;2022-12-15T15:14:04;-4.30;99.90
15426;DHT22;7812;50.072;7.036;2022-12-15T15:16:30;-4.50;99.90
15426;DHT22;7812;50.072;7.036;2022-12-15T15:18:59;-4.60;99.90
15426;DHT22;7812;50.072;7.036;2022-12-15T15:21:28;-4.60;99.90
15426;DHT22;7812;50.072;7.036;2022-12-15T15:24:38;-4.60;99.90
15426;DHT22;7812;50.072;7.036;2022-12-15T15:30:20;-4.50;99.90
15426;DHT22;7812;50.072;7.036;2022-12-15T15:32:57;-4.40;99.90
15426;DHT22;7812;50.072;7.036;2022-12-15T15:35:27;-4.30;99.90
15426;DHT22;7812;50.072;7.036;2022-12-15T15:38:03;-4.30;99.90
15426;DHT22;7812;50.072;7.036;2022-12-15T15:40:30;-4.40;99.90
15426;DHT22;7812;50.072;7.036;2022-12-15T15:42:56;-4.30;99.90
15426;DHT22;7812;50.072;7.036;2022-12-15T15:45:22;-4.10;99.90
15426;DHT22;7812;50.072;7.036;2022-12-15T15:47:50;-4.00;99.90
15426;DHT22;7812;50.072;7.036;2022-12-15T15:50:24;-4.00;99.90
15426;DHT22;7812;50.072;7.036;2022-12-15T15:52:51;-4.20;99.90
15426;DHT22;7812;50.072;7.036;2022-12-15T15:55:25;-4.20;99.90
15426;DHT22;7812;50.072;7.036;2022-12-15T15:57:51;-4.20;99.90
15426;DHT22;7812;50.072;7.036;2022-12-15T16:00:23;-4.20;99.90
15426;DHT22;7812;50.072;7.036;2022-12-15T16:02:50;-4.30;99.90
15426;DHT22;7812;50.072;7.036;2022-12-15T16:05:16;-4.40;99.90
15426;DHT22;7812;50.072;7.036;2022-12-15T16:07:43;-4.40;99.90
15426;DHT22;7812;50.072;7.036;2022-12-15T16:10:16;-4.20;99.90
15426;DHT22;7812;50.072;7.036;2022-12-15T16:12:51;-4.20;99.90
15426;DHT22;7812;50.072;7.036;2022-12-15T16:15:22;-4.20;99.90
15426;DHT22;7812;50.072;7.036;2022-12-15T16:17:48;-4.10;99.90
15426;DHT22;7812;50.072;7.036;2022-12-15T16:20:16;-4.20;99.90
15426;DHT22;7812;50.072;7.036;2022-12-15T16:22:44;-4.20;99.90
15426;DHT22;7812;50.072;7.036;2022-12-15T16:25:46;-4.20;99.90
15426;DHT22;7812;50.072;7.036;2022-12-15T16:28:13;-4.30;99.90
15426;DHT22;7812;50.072;7.036;2022-12-15T16:30:40;-4.50;99.90
15426;DHT22;7812;50.072;7.036;2022-12-15T16:33:06;-4.50;99.90
15426;DHT22;7812;50.072;7.036;2022-12-15T16:35:32;-4.50;99.90
15426;DHT22;7812;50.072;7.036;2022-12-15T16:37:57;-4.30;99.90
15426;DHT22;7812;50.072;7.036;2022-12-15T16:40:26;-4.40;99.90
15426;DHT22;7812;50.072;7.036;2022-12-15T16:45:23;-4.40;99.90
15426;DHT22;7812;50.072;7.036;2022-12-15T16:47:49;-4.40;99.90
15426;DHT22;7812;50.072;7.036;2022-12-15T16:50:17;-4.40;99.90
15426;DHT22;7812;50.072;7.036;2022-12-15T16:52:45;-4.50;99.90
15426;DHT22;7812;50.072;7.036;2022-12-15T16:55:29;-4.70;99.90
15426;DHT22;7812;50.072;7.036;2022-12-15T16:58:00;-4.60;99.90
15426;DHT22;7812;50.072;7.036;2022-12-15T17:00:34;-4.70;99.90
15426;DHT22;7812;50.072;7.036;2022-12-15T17:03:00;-4.70;99.90
15426;DHT22;7812;50.072;7.036;2022-12-15T17:05:31;-4.80;99.90
15426;DHT22;7812;50.072;7.036;2022-12-15T17:07:58;-4.80;99.90
15426;DHT22;7812;50.072;7.036;2022-12-15T17:10:26;-4.80;99.90
15426;DHT22;7812;50.072;7.036;2022-12-15T17:13:06;-4.70;99.90
15426;DHT22;7812;50.072;7.036;2022-12-15T17:15:35;-4.70;99.90
15426;DHT22;7812;50.072;7.036;2022-12-15T17:18:04;-4.80;99.90
15426;DHT22;7812;50.072;7.036;2022-12-15T17:20:30;-4.90;99.90
15426;DHT22;7812;50.072;7.036;2022-12-15T17:23:01;-5.00;99.90
15426;DHT22;7812;50.072;7.036;2022-12-15T17:25:38;-5.00;99.90
15426;DHT22;7812;50.072;7.036;2022-12-15T17:28:15;-5.00;99.90
15426;DHT22;7812;50.072;7.036;2022-12-15T17:30:43;-5.10;99.90
15426;DHT22;7812;50.072;7.036;2022-12-15T17:33:21;-5.00;99.90
15426;DHT22;7812;50.072;7.036;2022-12-15T17:35:49;-5.20;99.90
15426;DHT22;7812;50.072;7.036;2022-12-15T17:38:17;-5.40;99.90
15426;DHT22;7812;50.072;7.036;2022-12-15T17:40:44;-5.40;99.90
15426;DHT22;7812;50.072;7.036;2022-12-15T17:43:16;-5.40;99.90
15426;DHT22;7812;50.072;7.036;2022-12-15T17:48:43;-5.10;99.90
15426;DHT22;7812;50.072;7.036;2022-12-15T17:51:17;-5.20;99.90
15426;DHT22;7812;50.072;7.036;2022-12-15T17:53:45;-5.20;99.90
15426;DHT22;7812;50.072;7.036;2022-12-15T17:56:13;-5.20;99.90
15426;DHT22;7812;50.072;7.036;2022-12-15T17:58:40;-5.40;99.90
15426;DHT22;7812;50.072;7.036;2022-12-15T18:01:11;-5.40;99.90
15426;DHT22;7812;50.072;7.036;2022-12-15T18:03:37;-5.60;99.90
15426;DHT22;7812;50.072;7.036;2022-12-15T18:06:04;-5.50;99.90
15426;DHT22;7812;50.072;7.036;2022-12-15T18:08:33;-5.40;99.90
15426;DHT22;7812;50.072;7.036;2022-12-15T18:10:59;-5.50;99.90
15426;DHT22;7812;50.072;7.036;2022-12-15T18:13:27;-5.50;99.90
15426;DHT22;7812;50.072;7.036;2022-12-15T18:15:54;-5.60;99.90
15426;DHT22;7812;50.072;7.036;2022-12-15T18:18:22;-5.60;99.90
15426;DHT22;7812;50.072;7.036;2022-12-15T18:20:49;-5.50;99.90
15426;DHT22;7812;50.072;7.036;2022-12-15T18:23:23;-5.80;99.90
15426;DHT22;7812;50.072;7.036;2022-12-15T18:25:50;-5.90;99.90
15426;DHT22;7812;50.072;7.036;2022-12-15T18:28:25;-5.80;99.90
15426;DHT22;7812;50.072;7.036;2022-12-15T18:33:55;-5.80;99.90